Meteorología y climatología de Navarra
Datos de la estación - Meteo Navarra

Estación de Bera (Larrategaña) GN

Altitud 306 m.


Datos desde el 07/12/2018 hasta el 08/12/2018 en horario solar
Los datos son PROVISIONALES

Anterior Página 1 de 1 Siguiente Descargar: Formato para Excel 2000 o superior   Formato csv   Formato para OpenOffice Calc
Fecha Temperatura Humedad relativa Radiación global Insolación Precipitación Velocidad viento 10 m Velocidad viento 10 m Dirección viento 10 m
ºC % W/m² s l/m² m/s km/h º
07/12/2018 0:00 9.7 95 0.0 0 0.0 1.7 6.2 230
07/12/2018 0:10 9.5 95 0.0 0 0.0 1.9 6.8 231
07/12/2018 0:20 9.3 95 0.0 0 0.0 2.6 9.4 234
07/12/2018 0:30 9.3 95 0.0 0 0.0 2.4 8.7 238
07/12/2018 0:40 9.1 95 0.0 0 0.0 2.1 7.7 236
07/12/2018 0:50 9.0 95 0.0 0 0.0 2.2 7.8 238
07/12/2018 1:00 8.9 95 0.0 0 0.0 1.6 5.9 231
07/12/2018 1:10 8.9 95 0.0 0 0.0 2.0 7.3 232
07/12/2018 1:20 8.6 95 0.0 0 0.0 2.1 7.7 230
07/12/2018 1:30 8.5 95 0.0 0 0.0 2.1 7.4 240
07/12/2018 1:40 8.4 95 0.0 0 0.0 2.0 7.0 245
07/12/2018 1:50 8.3 95 0.0 0 0.0 2.1 7.4 237
07/12/2018 2:00 8.2 95 0.0 0 0.0 2.0 7.3 232
07/12/2018 2:10 8.0 95 0.0 0 0.0 2.0 7.3 234
07/12/2018 2:20 7.9 95 0.0 0 0.0 2.0 7.1 236
07/12/2018 2:30 7.9 95 0.0 0 0.0 2.1 7.7 240
07/12/2018 2:40 7.8 95 0.0 0 0.0 2.3 8.1 237
07/12/2018 2:50 7.7 95 0.0 0 0.0 2.2 8.0 237
07/12/2018 3:00 7.5 95 0.0 0 0.0 2.4 8.5 236
07/12/2018 3:10 7.4 95 0.0 0 0.0 2.4 8.8 227
07/12/2018 3:20 7.4 95 0.0 0 0.0 2.3 8.3 230
07/12/2018 3:30 7.3 95 0.0 0 0.0 2.1 7.6 229
07/12/2018 3:40 7.2 95 0.0 0 0.0 2.3 8.4 234
07/12/2018 3:50 7.1 95 0.0 0 0.0 2.5 8.9 234
07/12/2018 4:00 7.0 95 0.0 0 0.0 2.4 8.5 231
07/12/2018 4:10 6.9 95 0.0 0 0.0 2.2 7.8 234
07/12/2018 4:20 6.9 95 0.0 0 0.0 2.4 8.6 235
07/12/2018 4:30 6.8 95 0.0 0 0.0 2.8 10.0 231
07/12/2018 4:40 6.8 95 0.0 0 0.0 2.8 9.9 229
07/12/2018 4:50 6.8 95 0.0 0 0.0 2.8 10.0 233
07/12/2018 5:00 6.8 95 0.0 0 0.0 2.7 9.8 227
07/12/2018 5:10 6.7 95 0.0 0 0.0 2.8 10.2 236
07/12/2018 5:20 6.6 95 0.0 0 0.0 2.9 10.4 236
07/12/2018 5:30 6.5 95 0.0 0 0.0 2.4 8.8 236
07/12/2018 5:40 6.4 95 0.0 0 0.0 2.9 10.5 227
07/12/2018 5:50 6.1 95 0.0 0 0.0 3.3 11.7 230
07/12/2018 6:00 6.0 95 0.0 0 0.0 3.3 11.9 228
07/12/2018 6:10 5.9 95 0.0 0 0.0 3.0 10.6 235
07/12/2018 6:20 5.8 95 0.0 0 0.0 2.9 10.3 235
07/12/2018 6:30 5.9 95 0.0 0 0.0 2.7 9.5 237
07/12/2018 6:40 5.9 95 0.0 0 0.0 3.0 10.9 228
07/12/2018 6:50 5.8 95 0.0 0 0.0 3.3 12.0 226
07/12/2018 7:00 5.7 95 0.0 0 0.0 2.9 10.4 229
07/12/2018 7:10 5.9 95 0.0 0 0.0 2.9 10.3 238
07/12/2018 7:20 6.2 94 0.0 0 0.0 2.9 10.6 236
07/12/2018 7:30 6.1 94 0.0 0 0.0 3.0 10.9 231
07/12/2018 7:40 5.9 95 0.0 0 0.0 3.0 10.9 229
07/12/2018 7:50 5.6 95 4.1 0 0.0 2.9 10.4 240
07/12/2018 8:00 6.0 93 42.9 436 0.0 2.9 10.3 241
07/12/2018 8:10 6.5 89 65.8 600 0.0 2.9 10.4 237
07/12/2018 8:20 6.5 88 84.1 600 0.0 2.8 10.0 229
07/12/2018 8:30 6.5 89 110.0 600 0.0 3.1 11.2 233
07/12/2018 8:40 6.4 90 137.8 600 0.0 2.9 10.6 234
07/12/2018 8:50 6.7 88 157.1 600 0.0 3.0 10.9 230
07/12/2018 9:00 7.0 86 181.9 600 0.0 3.1 11.0 232
07/12/2018 9:10 7.1 86 214.7 600 0.0 3.5 12.5 230
07/12/2018 9:20 7.3 86 226.5 600 0.0 3.0 10.8 232
07/12/2018 9:30 7.9 83 253.0 600 0.0 3.1 11.2 238
07/12/2018 9:40 8.6 81 287.3 600 0.0 2.2 8.0 218
07/12/2018 9:50 8.7 79 294.4 600 0.0 2.7 9.6 218
07/12/2018 10:00 8.7 79 311.7 600 0.0 3.0 10.9 223
07/12/2018 10:10 9.1 78 329.6 600 0.0 2.8 9.9 221
07/12/2018 10:20 9.4 78 346.4 600 0.0 3.2 11.6 224
07/12/2018 10:30 9.7 76 359.5 600 0.0 3.1 11.0 229
07/12/2018 10:40 10.0 76 371.5 600 0.0 3.4 12.1 218
07/12/2018 10:50 10.5 74 382.8 600 0.0 2.9 10.5 218
07/12/2018 11:00 10.9 73 388.8 600 0.0 2.4 8.7 223
07/12/2018 11:10 11.6 70 397.4 600 0.0 2.2 7.9 219
07/12/2018 11:20 11.9 67 405.4 600 0.0 2.8 10.1 230
07/12/2018 11:30 12.2 66 409.0 600 0.0 2.8 10.0 226
07/12/2018 11:40 12.7 65 413.0 600 0.0 1.9 6.9 222
07/12/2018 11:50 13.2 62 413.1 600 0.0 2.3 8.4 217
07/12/2018 12:00 13.8 61 411.9 600 0.0 2.3 8.2 219
07/12/2018 12:10 14.1 58 411.1 600 0.0 2.5 9.1 227
07/12/2018 12:20 14.7 57 409.8 600 0.0 2.8 10.0 227
07/12/2018 12:30 14.8 56 410.6 600 0.0 3.3 12.0 227
07/12/2018 12:40 15.0 55 286.7 600 0.0 3.2 11.3 219
07/12/2018 12:50 15.0 56 202.4 68 0.0 2.2 8.0 218
07/12/2018 13:00 14.9 55 161.6 6 0.0 1.8 6.3 216
07/12/2018 13:10 15.1 55 101.0 0 0.0 0.8 3.0 215
07/12/2018 13:20 15.1 55 67.9 0 0.0 1.1 4.0 224
07/12/2018 13:30 15.0 55 72.0 0 0.0 1.4 5.1 234
07/12/2018 13:40 15.5 51 64.6 0 0.0 2.7 9.7 226
07/12/2018 13:50 15.6 52 62.4 0 0.0 2.3 8.4 280
07/12/2018 14:00 15.8 50 79.8 0 0.0 2.1 7.6 258
07/12/2018 14:10 15.9 51 115.1 56 0.0 2.9 10.5 268
07/12/2018 14:20 16.1 52 137.2 148 0.0 2.3 8.4 264
07/12/2018 14:30 15.8 53 55.0 0 0.0 3.7 13.2 269
07/12/2018 14:40 15.1 59 51.4 0 0.0 3.4 12.3 253
07/12/2018 14:50 14.5 63 28.4 0 0.0 4.1 14.7 250
07/12/2018 15:00 13.5 75 29.3 0 0.0 4.3 15.4 248
07/12/2018 15:10 12.7 84 17.2 0 0.0 1.6 5.7 256
07/12/2018 15:20 12.5 85 1.1 0 0.0 1.1 3.9 214
07/12/2018 15:30 12.4 88 2.1 0 0.0 1.4 5.0 196
07/12/2018 15:40 12.3 89 18.2 0 0.0 1.7 6.2 219
07/12/2018 15:50 12.5 86 13.3 0 0.0 1.0 3.4 189
07/12/2018 16:00 12.6 87 0.0 0 0.0 1.4 4.9 229
07/12/2018 16:10 12.5 87 0.0 0 0.0 2.1 7.5 289
07/12/2018 16:20 12.5 89 0.0 0 0.0 2.3 8.4 292
07/12/2018 16:30 12.0 94 0.0 0 0.2 2.2 8.1 288
07/12/2018 16:40 11.4 95 0.0 0 0.2 2.5 8.9 278
07/12/2018 16:50 11.0 95 0.0 0 0.1 2.0 7.1 273
07/12/2018 17:00 10.9 95 0.0 0 0.1 2.2 7.7 244
07/12/2018 17:10 11.1 95 0.0 0 0.0 3.1 11.1 265
07/12/2018 17:20 11.0 95 0.0 0 0.1 2.3 8.3 290
07/12/2018 17:30 10.9 95 0.0 0 0.0 2.0 7.2 312
07/12/2018 17:40 10.8 95 0.0 0 0.1 2.0 7.2 284
07/12/2018 17:50 10.7 95 0.0 0 0.1 1.9 6.9 287
07/12/2018 18:00 10.6 95 0.0 0 0.3 0.6 2.3 209
07/12/2018 18:10 10.6 95 0.0 0 0.5 1.2 4.3 270
07/12/2018 18:20 10.5 95 0.0 0 1.2 2.1 7.7 286
07/12/2018 18:30 10.1 95 0.0 0 0.3 2.6 9.2 299
07/12/2018 18:40 9.8 95 0.0 0 0.3 1.5 5.5 261
07/12/2018 18:50 9.6 95 0.0 0 0.1 2.6 9.2 264
07/12/2018 19:00 9.7 95 0.0 0 0.1 2.0 7.2 240
07/12/2018 19:10 9.8 95 0.0 0 0.3 1.6 5.9 249
07/12/2018 19:20 9.7 95 0.0 0 0.5 3.4 12.1 310
07/12/2018 19:30 9.4 95 0.0 0 0.2 2.0 7.1 289
07/12/2018 19:40 9.1 95 0.0 0 0.0 1.4 5.0 264
07/12/2018 19:50 9.1 95 0.0 0 0.0 1.0 3.7 205
07/12/2018 20:00 9.2 95 0.0 0 0.0 1.5 5.3 225
07/12/2018 20:10 9.3 95 0.0 0 0.1 1.8 6.6 235
07/12/2018 20:20 9.7 91 0.0 0 0.0 1.7 6.1 254
07/12/2018 20:30 9.8 89 0.0 0 0.0 1.8 6.5 249
07/12/2018 20:40 9.8 88 0.0 0 0.0 2.3 8.3 240
07/12/2018 20:50 9.7 89 0.0 0 0.0 2.2 8.0 231
07/12/2018 21:00 9.7 90 0.0 0 0.0 2.0 7.1 241
07/12/2018 21:10 9.5 92 0.0 0 0.0 1.2 4.3 219
07/12/2018 21:20 9.4 93 0.0 0 0.0 0.6 2.1 214
07/12/2018 21:30 9.3 94 0.0 0 0.2 1.2 4.5 227
07/12/2018 21:40 9.2 95 0.0 0 0.1 1.0 3.5 233
07/12/2018 21:50 9.1 95 0.0 0 0.1 0.8 2.9 229
07/12/2018 22:00 9.2 95 0.0 0 0.0 0.7 2.5 223
07/12/2018 22:10 9.1 95 0.0 0 0.0 1.1 3.8 186
07/12/2018 22:20 8.9 95 0.0 0 0.0 1.7 6.1 210
07/12/2018 22:30 9.0 95 0.0 0 0.0 2.0 7.2 224
07/12/2018 22:40 9.1 95 0.0 0 0.0 1.9 6.8 224
07/12/2018 22:50 9.2 94 0.0 0 0.0 1.1 3.9 232
07/12/2018 23:00 9.3 92 0.0 0 0.0 0.9 3.2 200
07/12/2018 23:10 9.5 91 0.0 0 0.0 0.9 3.1 230
07/12/2018 23:20 9.5 91 0.0 0 0.0 1.2 4.1 220
07/12/2018 23:30 9.5 90 0.0 0 0.0 1.4 5.0 253
07/12/2018 23:40 9.5 92 0.0 0 0.6 1.3 4.6 252
07/12/2018 23:50 9.2 95 0.0 0 0.4 0.6 2.3 285
Anterior Página 1 de 1 Siguiente

NOTA: Tipo de datos según el color:
   - Valores diarios o 10 minutos correctos
   - Valores diarios calculados a partir de un número de datos 10 minutos menor que 144 y mayor que 120, o de un número de datos semihorarios menor que 48 y mayor que 40 (caso de las estaciones de Riegos de Navarra y del MARM)
   - Valores diez minutos estimados


Contacto        Enlaces        Aviso legal